sensor_id;sensor_type;location;lat;lon;timestamp;P1;durP1;ratioP1;P2;durP2;ratioP2
1507;SDS011;745;48.586;10.032;2022-11-30T00:00:33;17.23;;;11.90;;
1507;SDS011;745;48.586;10.032;2022-11-30T00:05:03;14.60;;;9.50;;
1507;SDS011;745;48.586;10.032;2022-11-30T00:09:34;15.10;;;9.60;;
1507;SDS011;745;48.586;10.032;2022-11-30T00:14:04;14.53;;;8.93;;
1507;SDS011;745;48.586;10.032;2022-11-30T00:18:35;14.67;;;9.47;;
1507;SDS011;745;48.586;10.032;2022-11-30T00:23:06;12.23;;;8.17;;
1507;SDS011;745;48.586;10.032;2022-11-30T00:27:38;19.47;;;11.30;;
1507;SDS011;745;48.586;10.032;2022-11-30T00:32:09;16.50;;;10.10;;
1507;SDS011;745;48.586;10.032;2022-11-30T00:36:39;14.03;;;9.07;;
1507;SDS011;745;48.586;10.032;2022-11-30T00:41:10;17.23;;;9.67;;
1507;SDS011;745;48.586;10.032;2022-11-30T00:45:40;17.53;;;10.87;;
1507;SDS011;745;48.586;10.032;2022-11-30T00:50:12;21.87;;;12.17;;
1507;SDS011;745;48.586;10.032;2022-11-30T00:54:42;27.13;;;13.60;;
1507;SDS011;745;48.586;10.032;2022-11-30T00:59:12;27.97;;;14.37;;
1507;SDS011;745;48.586;10.032;2022-11-30T01:03:43;27.40;;;15.10;;
1507;SDS011;745;48.586;10.032;2022-11-30T01:08:14;33.53;;;16.17;;
1507;SDS011;745;48.586;10.032;2022-11-30T01:12:45;21.23;;;13.67;;
1507;SDS011;745;48.586;10.032;2022-11-30T01:17:16;20.83;;;12.40;;
1507;SDS011;745;48.586;10.032;2022-11-30T01:21:46;25.43;;;14.20;;
1507;SDS011;745;48.586;10.032;2022-11-30T01:26:16;27.63;;;15.40;;
1507;SDS011;745;48.586;10.032;2022-11-30T01:35:27;34.40;;;18.90;;
1507;SDS011;745;48.586;10.032;2022-11-30T01:39:58;40.23;;;19.43;;
1507;SDS011;745;48.586;10.032;2022-11-30T01:49:11;32.27;;;18.07;;
1507;SDS011;745;48.586;10.032;2022-11-30T01:53:44;46.50;;;23.27;;
1507;SDS011;745;48.586;10.032;2022-11-30T01:58:15;48.93;;;24.70;;
1507;SDS011;745;48.586;10.032;2022-11-30T02:02:51;54.00;;;27.50;;
1507;SDS011;745;48.586;10.032;2022-11-30T02:07:24;46.83;;;23.03;;
1507;SDS011;745;48.586;10.032;2022-11-30T02:11:55;47.33;;;24.50;;
1507;SDS011;745;48.586;10.032;2022-11-30T02:25:49;51.03;;;26.30;;
1507;SDS011;745;48.586;10.032;2022-11-30T02:30:27;49.90;;;24.60;;
1507;SDS011;745;48.586;10.032;2022-11-30T02:34:59;49.10;;;24.97;;
1507;SDS011;745;48.586;10.032;2022-11-30T02:39:31;46.17;;;24.73;;
1507;SDS011;745;48.586;10.032;2022-11-30T02:44:01;49.97;;;26.80;;
1507;SDS011;745;48.586;10.032;2022-11-30T02:48:44;56.87;;;28.57;;
1507;SDS011;745;48.586;10.032;2022-11-30T02:53:19;51.90;;;29.13;;
1507;SDS011;745;48.586;10.032;2022-11-30T02:57:50;56.70;;;28.50;;
1507;SDS011;745;48.586;10.032;2022-11-30T03:02:20;61.67;;;31.10;;
1507;SDS011;745;48.586;10.032;2022-11-30T03:06:50;56.10;;;28.30;;
1507;SDS011;745;48.586;10.032;2022-11-30T03:11:21;52.73;;;27.80;;
1507;SDS011;745;48.586;10.032;2022-11-30T03:15:51;51.20;;;25.40;;
1507;SDS011;745;48.586;10.032;2022-11-30T03:20:22;51.83;;;27.10;;
1507;SDS011;745;48.586;10.032;2022-11-30T03:24:52;52.13;;;25.20;;
1507;SDS011;745;48.586;10.032;2022-11-30T03:29:23;44.40;;;23.00;;
1507;SDS011;745;48.586;10.032;2022-11-30T03:33:53;38.90;;;22.17;;
1507;SDS011;745;48.586;10.032;2022-11-30T03:38:24;51.73;;;27.77;;
1507;SDS011;745;48.586;10.032;2022-11-30T03:42:54;49.07;;;26.17;;
1507;SDS011;745;48.586;10.032;2022-11-30T03:47:24;44.17;;;24.43;;
1507;SDS011;745;48.586;10.032;2022-11-30T03:51:55;42.10;;;22.60;;
1507;SDS011;745;48.586;10.032;2022-11-30T03:56:25;36.00;;;19.87;;
1507;SDS011;745;48.586;10.032;2022-11-30T04:01:03;33.43;;;18.77;;
1507;SDS011;745;48.586;10.032;2022-11-30T04:05:35;34.00;;;19.50;;
1507;SDS011;745;48.586;10.032;2022-11-30T04:10:05;34.13;;;19.03;;
1507;SDS011;745;48.586;10.032;2022-11-30T04:14:37;34.43;;;18.87;;
1507;SDS011;745;48.586;10.032;2022-11-30T04:19:08;31.30;;;18.03;;
1507;SDS011;745;48.586;10.032;2022-11-30T04:23:38;31.70;;;18.30;;
1507;SDS011;745;48.586;10.032;2022-11-30T04:28:09;34.10;;;20.33;;
1507;SDS011;745;48.586;10.032;2022-11-30T04:32:40;37.00;;;20.60;;
1507;SDS011;745;48.586;10.032;2022-11-30T04:37:10;45.23;;;23.47;;
1507;SDS011;745;48.586;10.032;2022-11-30T04:41:41;36.50;;;20.80;;
1507;SDS011;745;48.586;10.032;2022-11-30T04:46:11;40.93;;;22.50;;
1507;SDS011;745;48.586;10.032;2022-11-30T04:50:42;34.83;;;18.20;;
1507;SDS011;745;48.586;10.032;2022-11-30T04:55:13;32.17;;;18.83;;
1507;SDS011;745;48.586;10.032;2022-11-30T04:59:46;32.53;;;17.83;;
1507;SDS011;745;48.586;10.032;2022-11-30T05:04:16;31.47;;;18.37;;
1507;SDS011;745;48.586;10.032;2022-11-30T05:08:47;31.57;;;18.90;;
1507;SDS011;745;48.586;10.032;2022-11-30T05:13:18;32.07;;;18.20;;
1507;SDS011;745;48.586;10.032;2022-11-30T05:17:49;31.60;;;19.20;;
1507;SDS011;745;48.586;10.032;2022-11-30T05:22:19;33.80;;;17.17;;
1507;SDS011;745;48.586;10.032;2022-11-30T05:26:49;25.80;;;14.83;;
1507;SDS011;745;48.586;10.032;2022-11-30T05:31:20;22.80;;;14.43;;
1507;SDS011;745;48.586;10.032;2022-11-30T05:35:50;23.27;;;13.80;;
1507;SDS011;745;48.586;10.032;2022-11-30T05:40:21;23.30;;;13.73;;
1507;SDS011;745;48.586;10.032;2022-11-30T05:44:51;23.93;;;14.27;;
1507;SDS011;745;48.586;10.032;2022-11-30T05:49:22;31.07;;;15.63;;
1507;SDS011;745;48.586;10.032;2022-11-30T05:53:52;26.07;;;15.80;;
1507;SDS011;745;48.586;10.032;2022-11-30T05:58:23;29.67;;;17.03;;
1507;SDS011;745;48.586;10.032;2022-11-30T06:02:57;27.97;;;15.70;;
1507;SDS011;745;48.586;10.032;2022-11-30T06:07:27;24.50;;;13.30;;
1507;SDS011;745;48.586;10.032;2022-11-30T06:11:58;34.50;;;17.30;;
1507;SDS011;745;48.586;10.032;2022-11-30T06:16:28;35.20;;;16.57;;
1507;SDS011;745;48.586;10.032;2022-11-30T06:20:59;34.80;;;16.57;;
1507;SDS011;745;48.586;10.032;2022-11-30T06:25:30;35.73;;;18.00;;
1507;SDS011;745;48.586;10.032;2022-11-30T06:30:01;34.33;;;16.53;;
1507;SDS011;745;48.586;10.032;2022-11-30T06:34:32;30.93;;;16.73;;
1507;SDS011;745;48.586;10.032;2022-11-30T06:39:02;33.63;;;16.00;;
1507;SDS011;745;48.586;10.032;2022-11-30T06:43:34;39.83;;;20.70;;
1507;SDS011;745;48.586;10.032;2022-11-30T06:48:05;36.83;;;19.20;;
1507;SDS011;745;48.586;10.032;2022-11-30T06:52:35;42.97;;;20.80;;
1507;SDS011;745;48.586;10.032;2022-11-30T06:57:06;39.70;;;20.53;;
1507;SDS011;745;48.586;10.032;2022-11-30T07:01:36;42.50;;;20.40;;
1507;SDS011;745;48.586;10.032;2022-11-30T07:06:07;42.80;;;21.87;;
1507;SDS011;745;48.586;10.032;2022-11-30T07:10:39;38.57;;;20.10;;
1507;SDS011;745;48.586;10.032;2022-11-30T07:15:10;35.83;;;19.03;;
1507;SDS011;745;48.586;10.032;2022-11-30T07:19:41;46.70;;;24.63;;
1507;SDS011;745;48.586;10.032;2022-11-30T07:24:12;41.43;;;24.00;;
1507;SDS011;745;48.586;10.032;2022-11-30T07:29:01;52.07;;;24.50;;
1507;SDS011;745;48.586;10.032;2022-11-30T07:33:31;45.73;;;22.07;;
1507;SDS011;745;48.586;10.032;2022-11-30T07:38:01;50.23;;;25.20;;
1507;SDS011;745;48.586;10.032;2022-11-30T07:42:32;46.07;;;24.07;;
1507;SDS011;745;48.586;10.032;2022-11-30T07:47:02;47.07;;;23.17;;
1507;SDS011;745;48.586;10.032;2022-11-30T07:51:33;47.90;;;23.37;;
1507;SDS011;745;48.586;10.032;2022-11-30T07:56:04;44.50;;;22.10;;
1507;SDS011;745;48.586;10.032;2022-11-30T08:00:36;41.43;;;22.27;;
1507;SDS011;745;48.586;10.032;2022-11-30T08:05:07;38.57;;;21.17;;
1507;SDS011;745;48.586;10.032;2022-11-30T08:09:41;45.07;;;21.67;;
1507;SDS011;745;48.586;10.032;2022-11-30T08:14:11;50.80;;;25.03;;
1507;SDS011;745;48.586;10.032;2022-11-30T08:18:42;44.10;;;22.57;;
1507;SDS011;745;48.586;10.032;2022-11-30T08:23:13;43.07;;;21.83;;
1507;SDS011;745;48.586;10.032;2022-11-30T08:27:43;42.70;;;22.30;;
1507;SDS011;745;48.586;10.032;2022-11-30T08:32:14;42.63;;;21.27;;
1507;SDS011;745;48.586;10.032;2022-11-30T08:36:44;47.07;;;23.50;;
1507;SDS011;745;48.586;10.032;2022-11-30T08:41:16;44.00;;;23.80;;
1507;SDS011;745;48.586;10.032;2022-11-30T08:45:48;41.60;;;22.07;;
1507;SDS011;745;48.586;10.032;2022-11-30T08:50:19;41.43;;;24.03;;
1507;SDS011;745;48.586;10.032;2022-11-30T08:54:49;37.87;;;21.60;;
1507;SDS011;745;48.586;10.032;2022-11-30T08:59:19;39.93;;;23.17;;
1507;SDS011;745;48.586;10.032;2022-11-30T09:03:53;49.67;;;24.80;;
1507;SDS011;745;48.586;10.032;2022-11-30T09:08:24;42.87;;;23.40;;
1507;SDS011;745;48.586;10.032;2022-11-30T09:12:55;37.70;;;20.20;;
1507;SDS011;745;48.586;10.032;2022-11-30T09:17:25;36.97;;;19.30;;
1507;SDS011;745;48.586;10.032;2022-11-30T09:21:56;34.40;;;17.63;;
1507;SDS011;745;48.586;10.032;2022-11-30T09:26:26;25.57;;;15.20;;
1507;SDS011;745;48.586;10.032;2022-11-30T09:35:31;23.17;;;14.07;;
1507;SDS011;745;48.586;10.032;2022-11-30T09:40:02;20.30;;;12.00;;
1507;SDS011;745;48.586;10.032;2022-11-30T09:49:18;17.57;;;11.07;;
1507;SDS011;745;48.586;10.032;2022-11-30T09:53:56;21.00;;;13.43;;
1507;SDS011;745;48.586;10.032;2022-11-30T10:03:34;26.17;;;15.43;;
1507;SDS011;745;48.586;10.032;2022-11-30T10:08:28;25.90;;;15.07;;
1507;SDS011;745;48.586;10.032;2022-11-30T10:13:11;25.67;;;15.50;;
1507;SDS011;745;48.586;10.032;2022-11-30T10:17:59;23.77;;;14.23;;
1507;SDS011;745;48.586;10.032;2022-11-30T10:27:48;23.00;;;14.93;;
1507;SDS011;745;48.586;10.032;2022-11-30T10:32:21;23.00;;;14.23;;
1507;SDS011;745;48.586;10.032;2022-11-30T10:36:59;24.17;;;14.90;;
1507;SDS011;745;48.586;10.032;2022-11-30T10:46:04;26.57;;;15.27;;
1507;SDS011;745;48.586;10.032;2022-11-30T10:50:35;22.13;;;12.97;;
1507;SDS011;745;48.586;10.032;2022-11-30T10:55:11;19.60;;;13.77;;
1507;SDS011;745;48.586;10.032;2022-11-30T10:59:47;22.77;;;14.20;;
1507;SDS011;745;48.586;10.032;2022-11-30T11:04:25;22.40;;;14.50;;
1507;SDS011;745;48.586;10.032;2022-11-30T11:09:09;21.80;;;15.27;;
1507;SDS011;745;48.586;10.032;2022-11-30T11:13:52;29.40;;;16.00;;
1507;SDS011;745;48.586;10.032;2022-11-30T11:18:57;22.17;;;14.17;;
1507;SDS011;745;48.586;10.032;2022-11-30T11:28:13;24.43;;;14.50;;
1507;SDS011;745;48.586;10.032;2022-11-30T11:37:40;22.93;;;15.00;;
1507;SDS011;745;48.586;10.032;2022-11-30T11:42:20;21.70;;;14.63;;
1507;SDS011;745;48.586;10.032;2022-11-30T11:46:52;22.43;;;14.43;;
1507;SDS011;745;48.586;10.032;2022-11-30T11:51:37;24.40;;;15.17;;
1507;SDS011;745;48.586;10.032;2022-11-30T11:56:10;23.57;;;14.67;;
1507;SDS011;745;48.586;10.032;2022-11-30T12:00:43;22.00;;;13.80;;
1507;SDS011;745;48.586;10.032;2022-11-30T12:05:15;21.97;;;13.17;;
1507;SDS011;745;48.586;10.032;2022-11-30T12:10:02;19.27;;;13.40;;
1507;SDS011;745;48.586;10.032;2022-11-30T12:14:34;20.23;;;13.13;;
1507;SDS011;745;48.586;10.032;2022-11-30T12:57:25;19.97;;;13.73;;
1507;SDS011;745;48.586;10.032;2022-11-30T13:12:33;16.73;;;11.27;;
1507;SDS011;745;48.586;10.032;2022-11-30T13:17:12;14.73;;;10.40;;
1507;SDS011;745;48.586;10.032;2022-11-30T13:21:48;18.97;;;11.33;;
1507;SDS011;745;48.586;10.032;2022-11-30T13:31:28;18.90;;;12.77;;
1507;SDS011;745;48.586;10.032;2022-11-30T13:36:19;20.63;;;12.50;;
1507;SDS011;745;48.586;10.032;2022-11-30T13:40:52;19.37;;;12.73;;
1507;SDS011;745;48.586;10.032;2022-11-30T13:45:32;18.40;;;11.97;;
1507;SDS011;745;48.586;10.032;2022-11-30T13:50:05;17.63;;;11.90;;
1507;SDS011;745;48.586;10.032;2022-11-30T13:54:44;19.77;;;12.30;;
1507;SDS011;745;48.586;10.032;2022-11-30T13:59:31;17.80;;;12.57;;
1507;SDS011;745;48.586;10.032;2022-11-30T14:08:45;17.47;;;11.77;;
1507;SDS011;745;48.586;10.032;2022-11-30T14:17:52;19.43;;;12.10;;
1507;SDS011;745;48.586;10.032;2022-11-30T14:22:25;20.57;;;12.80;;
1507;SDS011;745;48.586;10.032;2022-11-30T14:26:56;23.50;;;14.73;;
1507;SDS011;745;48.586;10.032;2022-11-30T14:31:30;23.43;;;14.60;;
1507;SDS011;745;48.586;10.032;2022-11-30T14:36:15;22.60;;;14.10;;
1507;SDS011;745;48.586;10.032;2022-11-30T14:40:49;21.73;;;12.60;;
1507;SDS011;745;48.586;10.032;2022-11-30T14:49:57;20.90;;;13.77;;
1507;SDS011;745;48.586;10.032;2022-11-30T14:54:45;18.67;;;12.20;;
1507;SDS011;745;48.586;10.032;2022-11-30T14:59:29;22.83;;;12.87;;
1507;SDS011;745;48.586;10.032;2022-11-30T15:04:06;21.17;;;13.43;;
1507;SDS011;745;48.586;10.032;2022-11-30T15:08:42;18.77;;;10.77;;
1507;SDS011;745;48.586;10.032;2022-11-30T15:13:17;18.40;;;12.57;;
1507;SDS011;745;48.586;10.032;2022-11-30T15:22:26;22.43;;;12.20;;
1507;SDS011;745;48.586;10.032;2022-11-30T15:27:04;17.10;;;11.40;;
1507;SDS011;745;48.586;10.032;2022-11-30T15:31:41;18.97;;;11.50;;
1507;SDS011;745;48.586;10.032;2022-11-30T15:36:14;18.10;;;11.53;;
1507;SDS011;745;48.586;10.032;2022-11-30T15:40:45;20.03;;;12.17;;
1507;SDS011;745;48.586;10.032;2022-11-30T15:45:28;20.17;;;12.67;;
1507;SDS011;745;48.586;10.032;2022-11-30T15:50:00;24.17;;;14.47;;
1507;SDS011;745;48.586;10.032;2022-11-30T15:54:48;25.77;;;15.20;;
1507;SDS011;745;48.586;10.032;2022-11-30T15:59:24;22.30;;;14.00;;
1507;SDS011;745;48.586;10.032;2022-11-30T16:03:59;21.87;;;12.90;;
1507;SDS011;745;48.586;10.032;2022-11-30T16:08:30;26.90;;;15.93;;
1507;SDS011;745;48.586;10.032;2022-11-30T16:13:01;28.03;;;14.30;;
1507;SDS011;745;48.586;10.032;2022-11-30T16:17:33;25.10;;;13.30;;
1507;SDS011;745;48.586;10.032;2022-11-30T16:22:03;24.37;;;13.00;;
1507;SDS011;745;48.586;10.032;2022-11-30T16:26:34;21.70;;;12.77;;
1507;SDS011;745;48.586;10.032;2022-11-30T16:31:04;23.73;;;12.20;;
1507;SDS011;745;48.586;10.032;2022-11-30T16:35:39;20.87;;;12.50;;
1507;SDS011;745;48.586;10.032;2022-11-30T16:40:11;18.37;;;10.43;;
1507;SDS011;745;48.586;10.032;2022-11-30T16:44:43;17.87;;;10.87;;
1507;SDS011;745;48.586;10.032;2022-11-30T16:49:14;15.97;;;11.00;;
1507;SDS011;745;48.586;10.032;2022-11-30T16:53:44;18.03;;;11.27;;
1507;SDS011;745;48.586;10.032;2022-11-30T16:58:15;14.10;;;9.83;;
1507;SDS011;745;48.586;10.032;2022-11-30T17:02:56;19.80;;;12.57;;
1507;SDS011;745;48.586;10.032;2022-11-30T17:07:28;16.93;;;11.10;;
1507;SDS011;745;48.586;10.032;2022-11-30T17:11:58;16.50;;;11.43;;
1507;SDS011;745;48.586;10.032;2022-11-30T17:16:29;21.13;;;13.00;;
1507;SDS011;745;48.586;10.032;2022-11-30T17:21:00;17.87;;;12.17;;
1507;SDS011;745;48.586;10.032;2022-11-30T17:25:30;17.63;;;11.33;;
1507;SDS011;745;48.586;10.032;2022-11-30T17:30:01;22.23;;;12.60;;
1507;SDS011;745;48.586;10.032;2022-11-30T17:34:31;21.63;;;14.73;;
1507;SDS011;745;48.586;10.032;2022-11-30T17:39:05;19.90;;;14.10;;
1507;SDS011;745;48.586;10.032;2022-11-30T17:43:36;23.70;;;14.53;;
1507;SDS011;745;48.586;10.032;2022-11-30T17:48:07;25.70;;;15.73;;
1507;SDS011;745;48.586;10.032;2022-11-30T17:52:37;23.27;;;15.03;;
1507;SDS011;745;48.586;10.032;2022-11-30T17:57:08;22.03;;;14.57;;
1507;SDS011;745;48.586;10.032;2022-11-30T18:01:38;25.40;;;16.20;;
1507;SDS011;745;48.586;10.032;2022-11-30T18:06:09;30.50;;;17.37;;
1507;SDS011;745;48.586;10.032;2022-11-30T18:10:40;29.93;;;17.90;;
1507;SDS011;745;48.586;10.032;2022-11-30T18:15:13;29.67;;;18.73;;
1507;SDS011;745;48.586;10.032;2022-11-30T18:19:44;29.63;;;17.73;;
1507;SDS011;745;48.586;10.032;2022-11-30T18:24:14;26.20;;;16.40;;
1507;SDS011;745;48.586;10.032;2022-11-30T18:28:45;27.00;;;17.07;;
1507;SDS011;745;48.586;10.032;2022-11-30T18:33:16;27.03;;;17.23;;
1507;SDS011;745;48.586;10.032;2022-11-30T18:37:46;28.67;;;17.20;;
1507;SDS011;745;48.586;10.032;2022-11-30T18:42:17;29.93;;;17.03;;
1507;SDS011;745;48.586;10.032;2022-11-30T18:46:48;25.47;;;15.63;;
1507;SDS011;745;48.586;10.032;2022-11-30T18:51:22;20.50;;;12.70;;
1507;SDS011;745;48.586;10.032;2022-11-30T18:55:54;21.97;;;13.47;;
1507;SDS011;745;48.586;10.032;2022-11-30T19:00:46;19.40;;;12.30;;
1507;SDS011;745;48.586;10.032;2022-11-30T19:05:16;19.93;;;12.30;;
1507;SDS011;745;48.586;10.032;2022-11-30T19:10:07;21.97;;;12.47;;
1507;SDS011;745;48.586;10.032;2022-11-30T19:14:39;20.83;;;12.87;;
1507;SDS011;745;48.586;10.032;2022-11-30T19:19:12;19.43;;;11.77;;
1507;SDS011;745;48.586;10.032;2022-11-30T19:23:43;17.70;;;11.33;;
1507;SDS011;745;48.586;10.032;2022-11-30T19:28:15;27.83;;;15.20;;
1507;SDS011;745;48.586;10.032;2022-11-30T19:32:46;29.53;;;15.90;;
1507;SDS011;745;48.586;10.032;2022-11-30T19:37:16;22.20;;;14.57;;
1507;SDS011;745;48.586;10.032;2022-11-30T19:41:47;26.93;;;16.93;;
1507;SDS011;745;48.586;10.032;2022-11-30T19:46:17;31.97;;;18.30;;
1507;SDS011;745;48.586;10.032;2022-11-30T19:50:48;35.40;;;19.27;;
1507;SDS011;745;48.586;10.032;2022-11-30T19:55:18;34.73;;;18.80;;
1507;SDS011;745;48.586;10.032;2022-11-30T19:59:49;31.87;;;18.33;;
1507;SDS011;745;48.586;10.032;2022-11-30T20:04:20;31.07;;;18.83;;
1507;SDS011;745;48.586;10.032;2022-11-30T20:08:50;28.97;;;16.17;;
1507;SDS011;745;48.586;10.032;2022-11-30T20:13:21;26.60;;;16.30;;
1507;SDS011;745;48.586;10.032;2022-11-30T20:17:51;28.40;;;16.47;;
1507;SDS011;745;48.586;10.032;2022-11-30T20:22:22;33.87;;;18.30;;
1507;SDS011;745;48.586;10.032;2022-11-30T20:26:52;36.90;;;21.50;;
1507;SDS011;745;48.586;10.032;2022-11-30T20:31:23;35.00;;;19.83;;
1507;SDS011;745;48.586;10.032;2022-11-30T20:35:53;43.20;;;22.50;;
1507;SDS011;745;48.586;10.032;2022-11-30T20:40:24;36.13;;;21.00;;
1507;SDS011;745;48.586;10.032;2022-11-30T20:44:54;46.07;;;24.67;;
1507;SDS011;745;48.586;10.032;2022-11-30T20:49:25;40.37;;;23.77;;
1507;SDS011;745;48.586;10.032;2022-11-30T20:53:55;39.70;;;23.57;;
1507;SDS011;745;48.586;10.032;2022-11-30T20:58:26;47.13;;;24.87;;
1507;SDS011;745;48.586;10.032;2022-11-30T21:02:57;41.80;;;23.53;;
1507;SDS011;745;48.586;10.032;2022-11-30T21:07:27;42.97;;;22.03;;
1507;SDS011;745;48.586;10.032;2022-11-30T21:11:57;33.50;;;21.20;;
1507;SDS011;745;48.586;10.032;2022-11-30T21:16:28;43.20;;;22.90;;
1507;SDS011;745;48.586;10.032;2022-11-30T21:21:05;40.40;;;22.40;;
1507;SDS011;745;48.586;10.032;2022-11-30T21:25:37;44.73;;;22.73;;
1507;SDS011;745;48.586;10.032;2022-11-30T21:30:08;42.20;;;23.17;;
1507;SDS011;745;48.586;10.032;2022-11-30T21:34:39;37.87;;;22.57;;
1507;SDS011;745;48.586;10.032;2022-11-30T21:39:12;38.37;;;23.20;;
1507;SDS011;745;48.586;10.032;2022-11-30T21:43:43;37.23;;;22.13;;
1507;SDS011;745;48.586;10.032;2022-11-30T21:48:14;41.83;;;20.60;;
1507;SDS011;745;48.586;10.032;2022-11-30T21:52:45;42.90;;;22.93;;
1507;SDS011;745;48.586;10.032;2022-11-30T21:57:16;35.53;;;20.63;;
1507;SDS011;745;48.586;10.032;2022-11-30T22:01:47;42.20;;;22.00;;
1507;SDS011;745;48.586;10.032;2022-11-30T22:06:17;29.60;;;17.73;;
1507;SDS011;745;48.586;10.032;2022-11-30T22:10:48;30.40;;;17.20;;
1507;SDS011;745;48.586;10.032;2022-11-30T22:15:19;29.10;;;17.30;;
1507;SDS011;745;48.586;10.032;2022-11-30T22:19:49;28.40;;;17.03;;
1507;SDS011;745;48.586;10.032;2022-11-30T22:24:20;26.23;;;15.40;;
1507;SDS011;745;48.586;10.032;2022-11-30T22:28:51;26.70;;;15.83;;
1507;SDS011;745;48.586;10.032;2022-11-30T22:33:33;25.77;;;15.70;;
1507;SDS011;745;48.586;10.032;2022-11-30T22:38:05;24.80;;;15.03;;
1507;SDS011;745;48.586;10.032;2022-11-30T22:42:35;28.27;;;16.57;;
1507;SDS011;745;48.586;10.032;2022-11-30T22:47:05;32.80;;;19.73;;
1507;SDS011;745;48.586;10.032;2022-11-30T22:51:36;26.20;;;15.30;;
1507;SDS011;745;48.586;10.032;2022-11-30T22:56:09;26.30;;;14.50;;
1507;SDS011;745;48.586;10.032;2022-11-30T23:00:41;25.83;;;14.43;;
1507;SDS011;745;48.586;10.032;2022-11-30T23:05:12;24.17;;;14.73;;
1507;SDS011;745;48.586;10.032;2022-11-30T23:09:43;24.30;;;15.10;;
1507;SDS011;745;48.586;10.032;2022-11-30T23:14:13;23.10;;;13.47;;
1507;SDS011;745;48.586;10.032;2022-11-30T23:18:49;23.83;;;14.90;;
1507;SDS011;745;48.586;10.032;2022-11-30T23:23:24;28.10;;;18.43;;
1507;SDS011;745;48.586;10.032;2022-11-30T23:27:54;29.93;;;16.73;;
1507;SDS011;745;48.586;10.032;2022-11-30T23:32:25;28.07;;;17.10;;
1507;SDS011;745;48.586;10.032;2022-11-30T23:36:55;29.73;;;16.20;;
1507;SDS011;745;48.586;10.032;2022-11-30T23:41:26;21.73;;;13.57;;
1507;SDS011;745;48.586;10.032;2022-11-30T23:45:57;22.23;;;14.13;;
1507;SDS011;745;48.586;10.032;2022-11-30T23:50:27;21.63;;;13.83;;
1507;SDS011;745;48.586;10.032;2022-11-30T23:54:58;25.53;;;14.17;;
1507;SDS011;745;48.586;10.032;2022-11-30T23:59:28;33.57;;;19.03;;
